sensor_id;sensor_type;location;lat;lon;timestamp;P1;durP1;ratioP1;P2;durP2;ratioP2
15363;SDS011;7781;49.690;6.472;2023-01-16T00:00:31;7.83;;;1.30;;
15363;SDS011;7781;49.690;6.472;2023-01-16T00:03:00;3.03;;;0.93;;
15363;SDS011;7781;49.690;6.472;2023-01-16T00:05:29;2.80;;;1.30;;
15363;SDS011;7781;49.690;6.472;2023-01-16T00:07:57;2.13;;;0.83;;
15363;SDS011;7781;49.690;6.472;2023-01-16T00:10:28;2.40;;;0.90;;
15363;SDS011;7781;49.690;6.472;2023-01-16T00:12:56;5.47;;;1.20;;
15363;SDS011;7781;49.690;6.472;2023-01-16T00:15:26;2.37;;;1.80;;
15363;SDS011;7781;49.690;6.472;2023-01-16T00:17:56;7.37;;;1.93;;
15363;SDS011;7781;49.690;6.472;2023-01-16T00:20:25;3.30;;;2.10;;
15363;SDS011;7781;49.690;6.472;2023-01-16T00:22:53;4.33;;;3.00;;
15363;SDS011;7781;49.690;6.472;2023-01-16T00:25:22;3.50;;;1.27;;
15363;SDS011;7781;49.690;6.472;2023-01-16T00:27:52;6.70;;;1.30;;
15363;SDS011;7781;49.690;6.472;2023-01-16T00:30:20;3.70;;;1.40;;
15363;SDS011;7781;49.690;6.472;2023-01-16T00:32:51;4.50;;;0.90;;
15363;SDS011;7781;49.690;6.472;2023-01-16T00:35:19;7.00;;;1.50;;
15363;SDS011;7781;49.690;6.472;2023-01-16T00:37:48;2.20;;;1.00;;
15363;SDS011;7781;49.690;6.472;2023-01-16T00:40:16;6.30;;;1.20;;
15363;SDS011;7781;49.690;6.472;2023-01-16T00:42:45;5.40;;;1.33;;
15363;SDS011;7781;49.690;6.472;2023-01-16T00:45:15;6.00;;;1.30;;
15363;SDS011;7781;49.690;6.472;2023-01-16T00:47:44;11.70;;;1.37;;
15363;SDS011;7781;49.690;6.472;2023-01-16T00:50:12;4.10;;;0.90;;
15363;SDS011;7781;49.690;6.472;2023-01-16T00:52:40;0.77;;;0.77;;
15363;SDS011;7781;49.690;6.472;2023-01-16T00:55:08;2.00;;;0.93;;
15363;SDS011;7781;49.690;6.472;2023-01-16T00:57:37;1.13;;;1.00;;
15363;SDS011;7781;49.690;6.472;2023-01-16T01:00:06;2.27;;;0.80;;
15363;SDS011;7781;49.690;6.472;2023-01-16T01:02:37;4.80;;;1.50;;
15363;SDS011;7781;49.690;6.472;2023-01-16T01:05:06;10.83;;;1.10;;
15363;SDS011;7781;49.690;6.472;2023-01-16T01:07:35;3.13;;;1.20;;
15363;SDS011;7781;49.690;6.472;2023-01-16T01:10:06;1.57;;;0.83;;
15363;SDS011;7781;49.690;6.472;2023-01-16T01:12:35;7.60;;;3.07;;
15363;SDS011;7781;49.690;6.472;2023-01-16T01:15:05;4.37;;;1.10;;
15363;SDS011;7781;49.690;6.472;2023-01-16T01:17:34;2.20;;;0.90;;
15363;SDS011;7781;49.690;6.472;2023-01-16T01:20:05;3.23;;;0.97;;
15363;SDS011;7781;49.690;6.472;2023-01-16T01:22:34;5.00;;;0.93;;
15363;SDS011;7781;49.690;6.472;2023-01-16T01:25:03;0.97;;;0.90;;
15363;SDS011;7781;49.690;6.472;2023-01-16T01:27:32;7.67;;;1.00;;
15363;SDS011;7781;49.690;6.472;2023-01-16T01:30:01;5.70;;;0.97;;
15363;SDS011;7781;49.690;6.472;2023-01-16T01:32:30;3.13;;;1.00;;
15363;SDS011;7781;49.690;6.472;2023-01-16T01:35:00;3.23;;;1.00;;
15363;SDS011;7781;49.690;6.472;2023-01-16T01:37:31;5.60;;;1.33;;
15363;SDS011;7781;49.690;6.472;2023-01-16T01:39:59;3.93;;;0.90;;
15363;SDS011;7781;49.690;6.472;2023-01-16T01:42:28;2.40;;;0.90;;
15363;SDS011;7781;49.690;6.472;2023-01-16T01:45:19;1.93;;;0.77;;
15363;SDS011;7781;49.690;6.472;2023-01-16T01:47:51;1.37;;;0.70;;
15363;SDS011;7781;49.690;6.472;2023-01-16T01:50:28;9.53;;;1.10;;
15363;SDS011;7781;49.690;6.472;2023-01-16T01:53:06;6.23;;;1.37;;
15363;SDS011;7781;49.690;6.472;2023-01-16T01:55:39;1.90;;;0.80;;
15363;SDS011;7781;49.690;6.472;2023-01-16T01:58:09;1.33;;;0.70;;
15363;SDS011;7781;49.690;6.472;2023-01-16T02:00:45;1.70;;;0.80;;
15363;SDS011;7781;49.690;6.472;2023-01-16T02:03:15;0.67;;;0.50;;
15363;SDS011;7781;49.690;6.472;2023-01-16T02:05:54;0.40;;;0.40;;
15363;SDS011;7781;49.690;6.472;2023-01-16T02:08:28;0.50;;;0.50;;
15363;SDS011;7781;49.690;6.472;2023-01-16T02:11:00;0.93;;;0.83;;
15363;SDS011;7781;49.690;6.472;2023-01-16T02:13:32;0.50;;;0.50;;
15363;SDS011;7781;49.690;6.472;2023-01-16T02:16:01;0.40;;;0.40;;
15363;SDS011;7781;49.690;6.472;2023-01-16T02:18:46;0.60;;;0.60;;
15363;SDS011;7781;49.690;6.472;2023-01-16T02:21:41;0.47;;;0.47;;
15363;SDS011;7781;49.690;6.472;2023-01-16T02:27:27;2.67;;;0.70;;
15363;SDS011;7781;49.690;6.472;2023-01-16T02:30:14;2.33;;;0.63;;
15363;SDS011;7781;49.690;6.472;2023-01-16T02:33:01;1.60;;;0.60;;
15363;SDS011;7781;49.690;6.472;2023-01-16T02:35:42;1.27;;;0.80;;
15363;SDS011;7781;49.690;6.472;2023-01-16T02:38:19;2.20;;;0.90;;
15363;SDS011;7781;49.690;6.472;2023-01-16T02:40:55;4.63;;;1.00;;
15363;SDS011;7781;49.690;6.472;2023-01-16T02:43:30;3.60;;;0.93;;
15363;SDS011;7781;49.690;6.472;2023-01-16T02:46:06;3.33;;;1.30;;
15363;SDS011;7781;49.690;6.472;2023-01-16T02:48:43;1.43;;;0.97;;
15363;SDS011;7781;49.690;6.472;2023-01-16T02:51:21;3.13;;;0.80;;
15363;SDS011;7781;49.690;6.472;2023-01-16T02:53:57;0.70;;;0.70;;
15363;SDS011;7781;49.690;6.472;2023-01-16T02:56:38;1.87;;;0.70;;
15363;SDS011;7781;49.690;6.472;2023-01-16T02:59:13;4.60;;;0.83;;
15363;SDS011;7781;49.690;6.472;2023-01-16T03:01:43;5.77;;;1.40;;
15363;SDS011;7781;49.690;6.472;2023-01-16T03:07:20;2.83;;;0.90;;
15363;SDS011;7781;49.690;6.472;2023-01-16T03:10:14;1.17;;;0.83;;
15363;SDS011;7781;49.690;6.472;2023-01-16T03:12:55;5.63;;;1.00;;
15363;SDS011;7781;49.690;6.472;2023-01-16T03:15:38;1.60;;;0.90;;
15363;SDS011;7781;49.690;6.472;2023-01-16T03:18:15;3.63;;;1.20;;
15363;SDS011;7781;49.690;6.472;2023-01-16T03:20:59;0.80;;;0.80;;
15363;SDS011;7781;49.690;6.472;2023-01-16T03:23:35;4.30;;;1.00;;
15363;SDS011;7781;49.690;6.472;2023-01-16T03:26:18;2.10;;;0.50;;
15363;SDS011;7781;49.690;6.472;2023-01-16T03:28:56;4.03;;;1.00;;
15363;SDS011;7781;49.690;6.472;2023-01-16T03:31:32;5.00;;;1.87;;
15363;SDS011;7781;49.690;6.472;2023-01-16T03:34:10;2.93;;;0.80;;
15363;SDS011;7781;49.690;6.472;2023-01-16T03:36:48;2.90;;;0.80;;
15363;SDS011;7781;49.690;6.472;2023-01-16T03:39:22;1.50;;;0.90;;
15363;SDS011;7781;49.690;6.472;2023-01-16T03:41:53;3.03;;;1.30;;
15363;SDS011;7781;49.690;6.472;2023-01-16T03:44:26;2.57;;;0.90;;
15363;SDS011;7781;49.690;6.472;2023-01-16T03:47:00;2.17;;;0.80;;
15363;SDS011;7781;49.690;6.472;2023-01-16T03:49:34;3.23;;;0.77;;
15363;SDS011;7781;49.690;6.472;2023-01-16T03:52:08;4.13;;;1.03;;
15363;SDS011;7781;49.690;6.472;2023-01-16T03:54:42;1.70;;;0.70;;
15363;SDS011;7781;49.690;6.472;2023-01-16T03:57:16;0.70;;;0.70;;
15363;SDS011;7781;49.690;6.472;2023-01-16T03:59:48;0.73;;;0.73;;
15363;SDS011;7781;49.690;6.472;2023-01-16T04:02:19;2.40;;;1.40;;
15363;SDS011;7781;49.690;6.472;2023-01-16T04:04:51;2.93;;;1.30;;
15363;SDS011;7781;49.690;6.472;2023-01-16T04:07:26;2.93;;;1.10;;
15363;SDS011;7781;49.690;6.472;2023-01-16T04:10:02;5.40;;;1.70;;
15363;SDS011;7781;49.690;6.472;2023-01-16T04:12:35;3.67;;;1.27;;
15363;SDS011;7781;49.690;6.472;2023-01-16T04:15:06;1.30;;;0.90;;
15363;SDS011;7781;49.690;6.472;2023-01-16T04:17:36;1.87;;;1.10;;
15363;SDS011;7781;49.690;6.472;2023-01-16T04:20:07;3.37;;;1.10;;
15363;SDS011;7781;49.690;6.472;2023-01-16T04:22:38;3.00;;;1.20;;
15363;SDS011;7781;49.690;6.472;2023-01-16T04:25:07;2.40;;;1.57;;
15363;SDS011;7781;49.690;6.472;2023-01-16T04:27:37;1.93;;;1.10;;
15363;SDS011;7781;49.690;6.472;2023-01-16T04:30:09;1.37;;;1.00;;
15363;SDS011;7781;49.690;6.472;2023-01-16T04:32:39;1.17;;;1.00;;
15363;SDS011;7781;49.690;6.472;2023-01-16T04:35:11;3.67;;;1.37;;
15363;SDS011;7781;49.690;6.472;2023-01-16T04:37:42;3.33;;;1.33;;
15363;SDS011;7781;49.690;6.472;2023-01-16T04:40:10;4.23;;;1.07;;
15363;SDS011;7781;49.690;6.472;2023-01-16T04:42:39;1.87;;;1.30;;
15363;SDS011;7781;49.690;6.472;2023-01-16T04:45:08;1.50;;;0.97;;
15363;SDS011;7781;49.690;6.472;2023-01-16T04:47:38;4.10;;;1.30;;
15363;SDS011;7781;49.690;6.472;2023-01-16T04:50:07;3.27;;;1.20;;
15363;SDS011;7781;49.690;6.472;2023-01-16T04:52:36;2.43;;;1.23;;
15363;SDS011;7781;49.690;6.472;2023-01-16T04:55:08;3.00;;;1.10;;
15363;SDS011;7781;49.690;6.472;2023-01-16T04:57:37;2.30;;;1.07;;
15363;SDS011;7781;49.690;6.472;2023-01-16T05:00:07;3.03;;;1.33;;
15363;SDS011;7781;49.690;6.472;2023-01-16T05:02:36;1.90;;;1.20;;
15363;SDS011;7781;49.690;6.472;2023-01-16T05:05:06;1.13;;;1.00;;
15363;SDS011;7781;49.690;6.472;2023-01-16T05:07:34;1.73;;;0.77;;
15363;SDS011;7781;49.690;6.472;2023-01-16T05:10:03;1.93;;;1.03;;
15363;SDS011;7781;49.690;6.472;2023-01-16T05:12:34;1.13;;;1.03;;
15363;SDS011;7781;49.690;6.472;2023-01-16T05:15:02;3.50;;;1.17;;
15363;SDS011;7781;49.690;6.472;2023-01-16T05:17:31;6.90;;;1.60;;
15363;SDS011;7781;49.690;6.472;2023-01-16T05:20:00;2.50;;;0.90;;
15363;SDS011;7781;49.690;6.472;2023-01-16T05:22:28;1.07;;;0.60;;
15363;SDS011;7781;49.690;6.472;2023-01-16T05:24:57;6.67;;;1.07;;
15363;SDS011;7781;49.690;6.472;2023-01-16T05:27:25;4.60;;;1.20;;
15363;SDS011;7781;49.690;6.472;2023-01-16T05:29:56;3.77;;;1.00;;
15363;SDS011;7781;49.690;6.472;2023-01-16T05:32:25;1.47;;;1.00;;
15363;SDS011;7781;49.690;6.472;2023-01-16T05:34:55;1.00;;;0.70;;
15363;SDS011;7781;49.690;6.472;2023-01-16T05:37:27;1.23;;;1.13;;
15363;SDS011;7781;49.690;6.472;2023-01-16T05:39:56;4.17;;;0.93;;
15363;SDS011;7781;49.690;6.472;2023-01-16T05:42:27;6.83;;;0.93;;
15363;SDS011;7781;49.690;6.472;2023-01-16T05:44:57;2.40;;;1.00;;
15363;SDS011;7781;49.690;6.472;2023-01-16T05:47:25;0.90;;;0.70;;
15363;SDS011;7781;49.690;6.472;2023-01-16T05:49:54;1.90;;;1.00;;
15363;SDS011;7781;49.690;6.472;2023-01-16T05:52:26;4.40;;;1.47;;
15363;SDS011;7781;49.690;6.472;2023-01-16T05:54:55;1.10;;;0.70;;
15363;SDS011;7781;49.690;6.472;2023-01-16T05:57:23;1.50;;;0.97;;
15363;SDS011;7781;49.690;6.472;2023-01-16T05:59:52;3.70;;;1.10;;
15363;SDS011;7781;49.690;6.472;2023-01-16T06:02:24;1.53;;;0.93;;
15363;SDS011;7781;49.690;6.472;2023-01-16T06:04:52;0.70;;;0.60;;
15363;SDS011;7781;49.690;6.472;2023-01-16T06:07:22;4.13;;;1.10;;
15363;SDS011;7781;49.690;6.472;2023-01-16T06:09:50;3.90;;;0.97;;
15363;SDS011;7781;49.690;6.472;2023-01-16T06:12:19;1.80;;;0.90;;
15363;SDS011;7781;49.690;6.472;2023-01-16T06:14:49;4.63;;;0.77;;
15363;SDS011;7781;49.690;6.472;2023-01-16T06:17:18;1.03;;;1.00;;
15363;SDS011;7781;49.690;6.472;2023-01-16T06:19:49;0.70;;;0.70;;
15363;SDS011;7781;49.690;6.472;2023-01-16T06:22:17;1.20;;;1.10;;
15363;SDS011;7781;49.690;6.472;2023-01-16T06:24:47;3.90;;;0.97;;
15363;SDS011;7781;49.690;6.472;2023-01-16T06:27:16;1.30;;;0.80;;
15363;SDS011;7781;49.690;6.472;2023-01-16T06:29:44;5.10;;;0.67;;
15363;SDS011;7781;49.690;6.472;2023-01-16T06:32:14;3.57;;;0.90;;
15363;SDS011;7781;49.690;6.472;2023-01-16T06:34:44;3.93;;;0.83;;
15363;SDS011;7781;49.690;6.472;2023-01-16T06:37:15;0.60;;;0.60;;
15363;SDS011;7781;49.690;6.472;2023-01-16T06:39:43;2.20;;;0.70;;
15363;SDS011;7781;49.690;6.472;2023-01-16T06:42:12;2.00;;;0.60;;
15363;SDS011;7781;49.690;6.472;2023-01-16T06:44:40;1.20;;;0.70;;
15363;SDS011;7781;49.690;6.472;2023-01-16T06:47:09;0.60;;;0.60;;
15363;SDS011;7781;49.690;6.472;2023-01-16T06:49:39;1.47;;;0.60;;
15363;SDS011;7781;49.690;6.472;2023-01-16T06:52:08;1.00;;;0.63;;
15363;SDS011;7781;49.690;6.472;2023-01-16T06:54:38;1.57;;;0.77;;
15363;SDS011;7781;49.690;6.472;2023-01-16T06:57:07;0.90;;;0.60;;
15363;SDS011;7781;49.690;6.472;2023-01-16T06:59:36;2.40;;;1.00;;
15363;SDS011;7781;49.690;6.472;2023-01-16T07:02:04;2.43;;;0.80;;
15363;SDS011;7781;49.690;6.472;2023-01-16T07:04:33;2.93;;;1.07;;
15363;SDS011;7781;49.690;6.472;2023-01-16T07:07:02;1.07;;;0.60;;
15363;SDS011;7781;49.690;6.472;2023-01-16T07:09:30;1.47;;;1.00;;
15363;SDS011;7781;49.690;6.472;2023-01-16T07:12:00;1.90;;;1.13;;
15363;SDS011;7781;49.690;6.472;2023-01-16T07:14:29;1.87;;;1.10;;
15363;SDS011;7781;49.690;6.472;2023-01-16T07:17:15;3.67;;;0.80;;
15363;SDS011;7781;49.690;6.472;2023-01-16T07:20:02;0.67;;;0.67;;
15363;SDS011;7781;49.690;6.472;2023-01-16T07:22:49;0.50;;;0.50;;
15363;SDS011;7781;49.690;6.472;2023-01-16T07:25:21;0.67;;;0.53;;
15363;SDS011;7781;49.690;6.472;2023-01-16T07:27:56;2.37;;;0.90;;
15363;SDS011;7781;49.690;6.472;2023-01-16T07:30:25;0.57;;;0.57;;
15363;SDS011;7781;49.690;6.472;2023-01-16T07:32:55;1.03;;;0.70;;
15363;SDS011;7781;49.690;6.472;2023-01-16T07:35:25;1.87;;;0.80;;
15363;SDS011;7781;49.690;6.472;2023-01-16T07:37:54;2.57;;;0.80;;
15363;SDS011;7781;49.690;6.472;2023-01-16T07:40:23;0.60;;;0.60;;
15363;SDS011;7781;49.690;6.472;2023-01-16T07:42:52;0.97;;;0.60;;
15363;SDS011;7781;49.690;6.472;2023-01-16T07:45:22;0.60;;;0.50;;
15363;SDS011;7781;49.690;6.472;2023-01-16T07:47:52;1.10;;;0.70;;
15363;SDS011;7781;49.690;6.472;2023-01-16T07:50:20;1.73;;;0.73;;
15363;SDS011;7781;49.690;6.472;2023-01-16T07:52:50;1.27;;;0.60;;
15363;SDS011;7781;49.690;6.472;2023-01-16T07:55:21;0.77;;;0.77;;
15363;SDS011;7781;49.690;6.472;2023-01-16T07:57:51;1.33;;;0.70;;
15363;SDS011;7781;49.690;6.472;2023-01-16T08:00:20;0.57;;;0.57;;
15363;SDS011;7781;49.690;6.472;2023-01-16T08:02:53;0.83;;;0.70;;
15363;SDS011;7781;49.690;6.472;2023-01-16T08:05:22;0.50;;;0.50;;
15363;SDS011;7781;49.690;6.472;2023-01-16T08:07:54;2.33;;;1.10;;
15363;SDS011;7781;49.690;6.472;2023-01-16T08:10:22;0.60;;;0.60;;
15363;SDS011;7781;49.690;6.472;2023-01-16T08:12:51;0.97;;;0.87;;
15363;SDS011;7781;49.690;6.472;2023-01-16T08:15:19;1.20;;;0.80;;
15363;SDS011;7781;49.690;6.472;2023-01-16T08:17:48;1.33;;;0.80;;
15363;SDS011;7781;49.690;6.472;2023-01-16T08:20:18;0.40;;;0.40;;
15363;SDS011;7781;49.690;6.472;2023-01-16T08:22:48;0.87;;;0.70;;
15363;SDS011;7781;49.690;6.472;2023-01-16T08:25:18;0.50;;;0.50;;
15363;SDS011;7781;49.690;6.472;2023-01-16T08:27:48;0.70;;;0.50;;
15363;SDS011;7781;49.690;6.472;2023-01-16T08:30:17;0.70;;;0.67;;
15363;SDS011;7781;49.690;6.472;2023-01-16T08:32:46;0.50;;;0.50;;
15363;SDS011;7781;49.690;6.472;2023-01-16T08:35:15;1.63;;;0.60;;
15363;SDS011;7781;49.690;6.472;2023-01-16T08:37:49;2.73;;;0.50;;
15363;SDS011;7781;49.690;6.472;2023-01-16T08:40:18;0.70;;;0.60;;
15363;SDS011;7781;49.690;6.472;2023-01-16T08:42:47;0.60;;;0.60;;
15363;SDS011;7781;49.690;6.472;2023-01-16T08:45:33;0.70;;;0.70;;
15363;SDS011;7781;49.690;6.472;2023-01-16T08:48:20;1.50;;;0.60;;
15363;SDS011;7781;49.690;6.472;2023-01-16T08:51:13;2.00;;;0.90;;
15363;SDS011;7781;49.690;6.472;2023-01-16T08:53:53;0.50;;;0.50;;
15363;SDS011;7781;49.690;6.472;2023-01-16T08:56:23;1.23;;;0.50;;
15363;SDS011;7781;49.690;6.472;2023-01-16T08:58:52;1.80;;;0.80;;
15363;SDS011;7781;49.690;6.472;2023-01-16T09:01:20;0.67;;;0.50;;
15363;SDS011;7781;49.690;6.472;2023-01-16T09:03:52;0.97;;;0.60;;
15363;SDS011;7781;49.690;6.472;2023-01-16T09:06:22;1.00;;;0.90;;
15363;SDS011;7781;49.690;6.472;2023-01-16T09:08:51;0.60;;;0.60;;
15363;SDS011;7781;49.690;6.472;2023-01-16T09:11:20;0.90;;;0.60;;
15363;SDS011;7781;49.690;6.472;2023-01-16T09:14:06;0.93;;;0.60;;
15363;SDS011;7781;49.690;6.472;2023-01-16T09:16:51;1.27;;;0.50;;
15363;SDS011;7781;49.690;6.472;2023-01-16T09:19:19;1.40;;;0.77;;
15363;SDS011;7781;49.690;6.472;2023-01-16T09:21:52;0.60;;;0.60;;
15363;SDS011;7781;49.690;6.472;2023-01-16T09:24:21;0.63;;;0.50;;
15363;SDS011;7781;49.690;6.472;2023-01-16T09:26:49;0.70;;;0.70;;
15363;SDS011;7781;49.690;6.472;2023-01-16T09:29:18;0.50;;;0.50;;
15363;SDS011;7781;49.690;6.472;2023-01-16T09:31:48;0.67;;;0.67;;
15363;SDS011;7781;49.690;6.472;2023-01-16T09:34:16;2.20;;;0.63;;
15363;SDS011;7781;49.690;6.472;2023-01-16T09:36:46;5.03;;;0.80;;
15363;SDS011;7781;49.690;6.472;2023-01-16T09:39:17;2.87;;;0.90;;
15363;SDS011;7781;49.690;6.472;2023-01-16T09:41:49;0.90;;;0.83;;
15363;SDS011;7781;49.690;6.472;2023-01-16T09:44:43;1.80;;;0.60;;
15363;SDS011;7781;49.690;6.472;2023-01-16T09:47:15;1.10;;;0.60;;
15363;SDS011;7781;49.690;6.472;2023-01-16T09:49:47;1.53;;;0.73;;
15363;SDS011;7781;49.690;6.472;2023-01-16T09:52:20;1.37;;;0.70;;
15363;SDS011;7781;49.690;6.472;2023-01-16T09:55:14;3.50;;;0.80;;
15363;SDS011;7781;49.690;6.472;2023-01-16T09:58:04;2.50;;;0.70;;
15363;SDS011;7781;49.690;6.472;2023-01-16T10:00:55;0.60;;;0.60;;
15363;SDS011;7781;49.690;6.472;2023-01-16T10:03:27;0.53;;;0.50;;
15363;SDS011;7781;49.690;6.472;2023-01-16T10:05:58;0.80;;;0.60;;
15363;SDS011;7781;49.690;6.472;2023-01-16T10:08:34;0.70;;;0.70;;
15363;SDS011;7781;49.690;6.472;2023-01-16T10:11:13;2.40;;;0.50;;
15363;SDS011;7781;49.690;6.472;2023-01-16T10:17:02;2.03;;;0.80;;
15363;SDS011;7781;49.690;6.472;2023-01-16T10:19:44;1.00;;;0.60;;
15363;SDS011;7781;49.690;6.472;2023-01-16T10:22:25;0.50;;;0.40;;
15363;SDS011;7781;49.690;6.472;2023-01-16T10:25:11;1.87;;;0.80;;
15363;SDS011;7781;49.690;6.472;2023-01-16T10:27:51;0.60;;;0.60;;
15363;SDS011;7781;49.690;6.472;2023-01-16T10:30:30;0.50;;;0.50;;
15363;SDS011;7781;49.690;6.472;2023-01-16T10:33:05;2.57;;;0.80;;
15363;SDS011;7781;49.690;6.472;2023-01-16T10:35:41;0.80;;;0.50;;
15363;SDS011;7781;49.690;6.472;2023-01-16T10:38:15;0.50;;;0.50;;
15363;SDS011;7781;49.690;6.472;2023-01-16T10:40:51;0.60;;;0.60;;
15363;SDS011;7781;49.690;6.472;2023-01-16T10:43:27;1.77;;;0.73;;
15363;SDS011;7781;49.690;6.472;2023-01-16T10:46:27;0.70;;;0.60;;
15363;SDS011;7781;49.690;6.472;2023-01-16T10:49:18;2.10;;;0.60;;
15363;SDS011;7781;49.690;6.472;2023-01-16T10:51:57;0.47;;;0.47;;
15363;SDS011;7781;49.690;6.472;2023-01-16T10:54:29;4.03;;;0.60;;
15363;SDS011;7781;49.690;6.472;2023-01-16T10:56:58;0.60;;;0.60;;
15363;SDS011;7781;49.690;6.472;2023-01-16T10:59:31;0.83;;;0.60;;
15363;SDS011;7781;49.690;6.472;2023-01-16T11:02:03;0.83;;;0.50;;
15363;SDS011;7781;49.690;6.472;2023-01-16T11:04:43;0.60;;;0.50;;
15363;SDS011;7781;49.690;6.472;2023-01-16T11:07:12;0.50;;;0.50;;
15363;SDS011;7781;49.690;6.472;2023-01-16T11:09:45;0.77;;;0.63;;
15363;SDS011;7781;49.690;6.472;2023-01-16T11:12:16;0.40;;;0.40;;
15363;SDS011;7781;49.690;6.472;2023-01-16T11:15:13;0.50;;;0.50;;
15363;SDS011;7781;49.690;6.472;2023-01-16T11:18:01;0.60;;;0.60;;
15363;SDS011;7781;49.690;6.472;2023-01-16T11:20:48;1.00;;;0.43;;
15363;SDS011;7781;49.690;6.472;2023-01-16T11:23:20;1.27;;;0.70;;
15363;SDS011;7781;49.690;6.472;2023-01-16T11:25:50;1.10;;;0.73;;
15363;SDS011;7781;49.690;6.472;2023-01-16T11:28:21;0.50;;;0.50;;
15363;SDS011;7781;49.690;6.472;2023-01-16T11:30:54;0.80;;;0.73;;
15363;SDS011;7781;49.690;6.472;2023-01-16T11:33:44;2.50;;;0.90;;
15363;SDS011;7781;49.690;6.472;2023-01-16T11:36:34;0.70;;;0.50;;
15363;SDS011;7781;49.690;6.472;2023-01-16T11:39:15;0.53;;;0.50;;
15363;SDS011;7781;49.690;6.472;2023-01-16T11:41:55;0.70;;;0.50;;
15363;SDS011;7781;49.690;6.472;2023-01-16T11:45:45;1.00;;;0.60;;
15363;SDS011;7781;49.690;6.472;2023-01-16T11:55:09;0.50;;;0.50;;
15363;SDS011;7781;49.690;6.472;2023-01-16T11:58:32;0.90;;;0.70;;
15363;SDS011;7781;49.690;6.472;2023-01-16T12:01:25;1.23;;;0.60;;
15363;SDS011;7781;49.690;6.472;2023-01-16T12:04:23;0.60;;;0.60;;
15363;SDS011;7781;49.690;6.472;2023-01-16T12:06:55;0.50;;;0.50;;
15363;SDS011;7781;49.690;6.472;2023-01-16T12:09:49;0.50;;;0.50;;
15363;SDS011;7781;49.690;6.472;2023-01-16T12:12:38;2.10;;;0.83;;
15363;SDS011;7781;49.690;6.472;2023-01-16T12:16:13;0.83;;;0.50;;
15363;SDS011;7781;49.690;6.472;2023-01-16T12:19:02;0.70;;;0.70;;
15363;SDS011;7781;49.690;6.472;2023-01-16T12:22:09;0.90;;;0.63;;
15363;SDS011;7781;49.690;6.472;2023-01-16T12:24:59;1.20;;;0.60;;
15363;SDS011;7781;49.690;6.472;2023-01-16T12:27:40;0.50;;;0.50;;
15363;SDS011;7781;49.690;6.472;2023-01-16T12:30:19;0.60;;;0.50;;
15363;SDS011;7781;49.690;6.472;2023-01-16T12:32:57;0.53;;;0.53;;
15363;SDS011;7781;49.690;6.472;2023-01-16T12:35:46;0.80;;;0.60;;
15363;SDS011;7781;49.690;6.472;2023-01-16T12:38:27;1.83;;;0.70;;
15363;SDS011;7781;49.690;6.472;2023-01-16T12:47:01;2.77;;;0.50;;
15363;SDS011;7781;49.690;6.472;2023-01-16T12:51:04;0.80;;;0.70;;
15363;SDS011;7781;49.690;6.472;2023-01-16T12:55:20;0.60;;;0.50;;
15363;SDS011;7781;49.690;6.472;2023-01-16T13:00:04;0.87;;;0.60;;
15363;SDS011;7781;49.690;6.472;2023-01-16T13:56:23;2.73;;;0.60;;
15363;SDS011;7781;49.690;6.472;2023-01-16T14:00:33;0.50;;;0.50;;
15363;SDS011;7781;49.690;6.472;2023-01-16T14:04:27;2.10;;;0.53;;
15363;SDS011;7781;49.690;6.472;2023-01-16T14:24:59;0.40;;;0.40;;
15363;SDS011;7781;49.690;6.472;2023-01-16T14:28:02;0.60;;;0.60;;
15363;SDS011;7781;49.690;6.472;2023-01-16T14:32:03;0.50;;;0.50;;
15363;SDS011;7781;49.690;6.472;2023-01-16T14:34:54;0.53;;;0.53;;
15363;SDS011;7781;49.690;6.472;2023-01-16T14:38:23;0.67;;;0.50;;
15363;SDS011;7781;49.690;6.472;2023-01-16T14:41:41;0.50;;;0.50;;
15363;SDS011;7781;49.690;6.472;2023-01-16T15:12:11;0.50;;;0.50;;
15363;SDS011;7781;49.690;6.472;2023-01-16T15:15:00;0.40;;;0.40;;
15363;SDS011;7781;49.690;6.472;2023-01-16T15:18:08;0.40;;;0.40;;
15363;SDS011;7781;49.690;6.472;2023-01-16T15:21:20;0.40;;;0.40;;
15363;SDS011;7781;49.690;6.472;2023-01-16T15:25:09;0.57;;;0.57;;
15363;SDS011;7781;49.690;6.472;2023-01-16T15:28:17;0.50;;;0.50;;
15363;SDS011;7781;49.690;6.472;2023-01-16T15:32:25;0.50;;;0.50;;
15363;SDS011;7781;49.690;6.472;2023-01-16T15:35:54;0.40;;;0.40;;
15363;SDS011;7781;49.690;6.472;2023-01-16T15:38:45;0.50;;;0.50;;
15363;SDS011;7781;49.690;6.472;2023-01-16T15:45:14;0.60;;;0.60;;
15363;SDS011;7781;49.690;6.472;2023-01-16T15:53:46;0.83;;;0.73;;
15363;SDS011;7781;49.690;6.472;2023-01-16T15:58:04;1.30;;;1.20;;
15363;SDS011;7781;49.690;6.472;2023-01-16T16:47:25;0.70;;;0.70;;
15363;SDS011;7781;49.690;6.472;2023-01-16T16:59:31;0.70;;;0.70;;
15363;SDS011;7781;49.690;6.472;2023-01-16T17:02:27;0.80;;;0.80;;
15363;SDS011;7781;49.690;6.472;2023-01-16T17:05:14;0.93;;;0.80;;
15363;SDS011;7781;49.690;6.472;2023-01-16T17:07:56;0.67;;;0.67;;
15363;SDS011;7781;49.690;6.472;2023-01-16T17:10:52;0.73;;;0.73;;
15363;SDS011;7781;49.690;6.472;2023-01-16T17:14:03;0.80;;;0.80;;
15363;SDS011;7781;49.690;6.472;2023-01-16T17:16:51;0.70;;;0.67;;
15363;SDS011;7781;49.690;6.472;2023-01-16T17:19:50;2.13;;;0.70;;
15363;SDS011;7781;49.690;6.472;2023-01-16T17:22:55;1.70;;;0.90;;
15363;SDS011;7781;49.690;6.472;2023-01-16T17:25:30;1.67;;;0.90;;
15363;SDS011;7781;49.690;6.472;2023-01-16T17:28:04;0.50;;;0.50;;
15363;SDS011;7781;49.690;6.472;2023-01-16T17:31:11;0.70;;;0.67;;
15363;SDS011;7781;49.690;6.472;2023-01-16T17:37:48;1.00;;;0.60;;
15363;SDS011;7781;49.690;6.472;2023-01-16T17:40:18;0.80;;;0.80;;
15363;SDS011;7781;49.690;6.472;2023-01-16T17:42:52;1.90;;;0.87;;
15363;SDS011;7781;49.690;6.472;2023-01-16T17:46:08;0.50;;;0.50;;
15363;SDS011;7781;49.690;6.472;2023-01-16T18:00:40;2.93;;;1.70;;
15363;SDS011;7781;49.690;6.472;2023-01-16T18:03:26;1.17;;;0.80;;
15363;SDS011;7781;49.690;6.472;2023-01-16T18:06:11;1.60;;;1.00;;
15363;SDS011;7781;49.690;6.472;2023-01-16T18:09:07;1.00;;;0.80;;
15363;SDS011;7781;49.690;6.472;2023-01-16T18:26:33;0.70;;;0.70;;
15363;SDS011;7781;49.690;6.472;2023-01-16T18:29:17;1.47;;;0.90;;
15363;SDS011;7781;49.690;6.472;2023-01-16T18:32:10;0.80;;;0.73;;
15363;SDS011;7781;49.690;6.472;2023-01-16T18:34:55;0.83;;;0.83;;
15363;SDS011;7781;49.690;6.472;2023-01-16T18:37:39;0.87;;;0.87;;
15363;SDS011;7781;49.690;6.472;2023-01-16T18:40:29;3.07;;;0.80;;
15363;SDS011;7781;49.690;6.472;2023-01-16T18:43:17;1.07;;;0.97;;
15363;SDS011;7781;49.690;6.472;2023-01-16T18:46:03;2.60;;;1.07;;
15363;SDS011;7781;49.690;6.472;2023-01-16T18:48:49;1.63;;;0.70;;
15363;SDS011;7781;49.690;6.472;2023-01-16T18:51:35;4.93;;;1.40;;
15363;SDS011;7781;49.690;6.472;2023-01-16T18:54:36;5.87;;;0.90;;
15363;SDS011;7781;49.690;6.472;2023-01-16T18:57:23;2.10;;;1.10;;
15363;SDS011;7781;49.690;6.472;2023-01-16T19:03:31;1.70;;;0.90;;
15363;SDS011;7781;49.690;6.472;2023-01-16T19:06:03;1.47;;;1.33;;
15363;SDS011;7781;49.690;6.472;2023-01-16T19:08:31;4.70;;;1.47;;
15363;SDS011;7781;49.690;6.472;2023-01-16T19:11:04;2.40;;;1.50;;
15363;SDS011;7781;49.690;6.472;2023-01-16T19:18:36;1.40;;;1.30;;
15363;SDS011;7781;49.690;6.472;2023-01-16T19:21:07;2.40;;;1.00;;
15363;SDS011;7781;49.690;6.472;2023-01-16T19:23:36;2.30;;;1.47;;
15363;SDS011;7781;49.690;6.472;2023-01-16T19:26:08;3.07;;;1.60;;
15363;SDS011;7781;49.690;6.472;2023-01-16T19:28:39;3.63;;;1.37;;
15363;SDS011;7781;49.690;6.472;2023-01-16T19:31:12;1.40;;;1.30;;
15363;SDS011;7781;49.690;6.472;2023-01-16T19:33:43;2.00;;;1.17;;
15363;SDS011;7781;49.690;6.472;2023-01-16T19:40:13;2.07;;;1.60;;
15363;SDS011;7781;49.690;6.472;2023-01-16T19:42:46;4.00;;;1.80;;
15363;SDS011;7781;49.690;6.472;2023-01-16T19:45:35;1.90;;;1.67;;
15363;SDS011;7781;49.690;6.472;2023-01-16T19:48:21;1.73;;;1.53;;
15363;SDS011;7781;49.690;6.472;2023-01-16T19:50:53;2.97;;;1.63;;
15363;SDS011;7781;49.690;6.472;2023-01-16T19:53:23;2.50;;;1.77;;
15363;SDS011;7781;49.690;6.472;2023-01-16T19:55:54;4.50;;;1.73;;
15363;SDS011;7781;49.690;6.472;2023-01-16T19:58:28;4.27;;;2.00;;
15363;SDS011;7781;49.690;6.472;2023-01-16T20:05:10;2.53;;;1.70;;